Impacts METAR Board
IDs:

KSFO - San Francisco Intl, CA, US

Updated at: 0300 UTC 06 Dec 2019
Potential Impact None Slight Moderate High
Time 05/15Z 05/16Z 05/17Z 05/18Z 05/19Z 05/20Z 05/21Z 05/22Z 05/23Z 06/00Z 06/01Z 06/02Z 06/03Z
Temp52 54 55 55 56 56 55 56 60 60 55 55 56
Dewpt51 51 51 50 51 50 50 51 53 52 52 52 52
Altim30.04 30.06 30.08 30.09 30.09 30.07 30.05 30.04 30.03 30.02 30.02 30.03 30.04
VIS3 8 8 8 9 10 10 9 10 10 10 10 10
CIG7 7 7 28 33 29 28 30 37 50 50 37 33
CoverOVCOVCOVCOVCOVCBKNOVCOVCOVCOVCBKNOVCOVC
FltCatIFRIFRIFRMVFRVFRMVFRMVFRMVFRVFRVFRVFRVFRVFR
WXBR------------------------
WDir1001406080606000230020350350
WSpd4 4 7 5 3 5 0 0 3 0 9 7 5
WGst-- -- -- -- -- -- -- -- -- -- -- -- --
Raw hourly METARs
KSFO 051456Z 10004KT 3SM BR OVC007 11/11 A3004 RMK AO2 SLP173 T01110106 53012
KSFO 051556Z 14004KT 8SM OVC007 12/11 A3006 RMK AO2 SLP180 T01220106
KSFO 051656Z 06007KT 8SM OVC007 13/11 A3008 RMK AO2 SLP186 T01280106
KSFO 051756Z 08005KT 8SM SCT008 OVC028 13/10 A3009 RMK AO2 SLP189 T01280100 10133 20111 51017
KSFO 051856Z 06003KT 9SM SCT009 OVC033 13/11 A3009 RMK AO2 SLP188 T01330106
KSFO 051956Z 06005KT 10SM BKN029 BKN036 13/10 A3007 RMK AO2 SLP182 T01330100
KSFO 052056Z 00000KT 10SM BKN028 OVC032 13/10 A3005 RMK AO2 SLP174 T01280100 58015
KSFO 052156Z 00000KT 9SM BKN030 OVC034 13/11 A3004 RMK AO2 SLP171 T01330106
KSFO 052256Z 23003KT 10SM FEW017 SCT030 OVC037 16/12 A3003 RMK AO2 SLP170 T01560117
KSFO 052356Z 00000KT 10SM FEW017 SCT034 OVC050 16/11 A3002 RMK AO2 SLP167 T01560111 10156 20128 56008
KSFO 060056Z 02009KT 10SM FEW017 SCT037 BKN050 13/11 A3002 RMK AO2 SLP166 T01280111
KSFO 060156Z 35007KT 10SM FEW017 BKN037 OVC050 13/11 A3003 RMK AO2 SLP169 T01280111
KSFO 060256Z 35005KT 10SM FEW017 BKN033 OVC050 13/11 A3004 RMK AO2 SLP171 T01330111 53004



Page loaded:  03:36 UTC  |   07:36 PM Pacific  |   08:36 PM Mountain  |   09:36 PM Central  |   10:36 PM Eastern

 

ADVISORIES

FORECASTS

FORECASTS

OBSERVATIONS

USER TOOLS

ABOUT US